sensor_id;sensor_type;location;lat;lon;timestamp;temperature;humidity
12504;DHT22;6316;48.118;-1.690;2023-06-22T00:02:18;21.20;97.00
12504;DHT22;6316;48.118;-1.690;2023-06-22T00:04:43;21.20;97.00
12504;DHT22;6316;48.118;-1.690;2023-06-22T00:07:09;21.20;97.10
12504;DHT22;6316;48.118;-1.690;2023-06-22T00:09:35;21.20;97.10
12504;DHT22;6316;48.118;-1.690;2023-06-22T00:12:02;21.10;97.10
12504;DHT22;6316;48.118;-1.690;2023-06-22T00:14:28;21.10;97.10
12504;DHT22;6316;48.118;-1.690;2023-06-22T00:16:54;21.10;97.20
12504;DHT22;6316;48.118;-1.690;2023-06-22T00:19:24;21.00;97.30
12504;DHT22;6316;48.118;-1.690;2023-06-22T00:21:50;21.00;97.30
12504;DHT22;6316;48.118;-1.690;2023-06-22T00:24:23;21.00;97.40
12504;DHT22;6316;48.118;-1.690;2023-06-22T00:26:49;20.90;97.40
12504;DHT22;6316;48.118;-1.690;2023-06-22T00:29:15;20.90;97.50
12504;DHT22;6316;48.118;-1.690;2023-06-22T00:31:40;20.90;97.60
12504;DHT22;6316;48.118;-1.690;2023-06-22T00:34:06;20.80;97.60
12504;DHT22;6316;48.118;-1.690;2023-06-22T00:36:34;20.80;97.70
12504;DHT22;6316;48.118;-1.690;2023-06-22T00:39:00;20.80;97.80
12504;DHT22;6316;48.118;-1.690;2023-06-22T00:41:26;20.80;97.80
12504;DHT22;6316;48.118;-1.690;2023-06-22T00:43:54;20.80;97.90
12504;DHT22;6316;48.118;-1.690;2023-06-22T00:46:21;20.80;97.90
12504;DHT22;6316;48.118;-1.690;2023-06-22T00:48:48;20.80;97.90
12504;DHT22;6316;48.118;-1.690;2023-06-22T00:51:14;20.80;98.00
12504;DHT22;6316;48.118;-1.690;2023-06-22T00:53:39;20.80;98.00
12504;DHT22;6316;48.118;-1.690;2023-06-22T00:56:06;20.80;98.00
12504;DHT22;6316;48.118;-1.690;2023-06-22T00:58:35;20.80;98.00
12504;DHT22;6316;48.118;-1.690;2023-06-22T01:01:01;20.80;98.00
12504;DHT22;6316;48.118;-1.690;2023-06-22T01:03:27;20.70;98.00
12504;DHT22;6316;48.118;-1.690;2023-06-22T01:05:59;20.70;98.10
12504;DHT22;6316;48.118;-1.690;2023-06-22T01:08:45;20.70;98.10
12504;DHT22;6316;48.118;-1.690;2023-06-22T01:14:41;20.60;98.20
12504;DHT22;6316;48.118;-1.690;2023-06-22T01:17:08;20.60;98.20
12504;DHT22;6316;48.118;-1.690;2023-06-22T01:22:02;20.50;98.30
12504;DHT22;6316;48.118;-1.690;2023-06-22T01:24:40;20.50;98.40
12504;DHT22;6316;48.118;-1.690;2023-06-22T01:30:11;20.50;98.50
12504;DHT22;6316;48.118;-1.690;2023-06-22T01:32:40;20.40;98.50
12504;DHT22;6316;48.118;-1.690;2023-06-22T01:35:07;20.40;98.50
12504;DHT22;6316;48.118;-1.690;2023-06-22T01:37:35;20.40;98.60
12504;DHT22;6316;48.118;-1.690;2023-06-22T01:40:02;20.40;98.60
12504;DHT22;6316;48.118;-1.690;2023-06-22T01:42:31;20.40;98.60
12504;DHT22;6316;48.118;-1.690;2023-06-22T01:44:57;20.40;98.70
12504;DHT22;6316;48.118;-1.690;2023-06-22T01:47:24;20.40;98.70
12504;DHT22;6316;48.118;-1.690;2023-06-22T01:49:51;20.40;98.80
12504;DHT22;6316;48.118;-1.690;2023-06-22T01:52:17;20.40;98.80
12504;DHT22;6316;48.118;-1.690;2023-06-22T01:54:43;20.30;98.80
12504;DHT22;6316;48.118;-1.690;2023-06-22T01:57:09;20.30;98.90
12504;DHT22;6316;48.118;-1.690;2023-06-22T02:02:10;20.30;99.00
12504;DHT22;6316;48.118;-1.690;2023-06-22T02:04:48;20.30;99.00
12504;DHT22;6316;48.118;-1.690;2023-06-22T02:07:18;20.30;99.10
12504;DHT22;6316;48.118;-1.690;2023-06-22T02:09:47;20.30;99.10
12504;DHT22;6316;48.118;-1.690;2023-06-22T02:12:17;20.20;99.10
12504;DHT22;6316;48.118;-1.690;2023-06-22T02:14:44;20.20;99.20
12504;DHT22;6316;48.118;-1.690;2023-06-22T02:17:10;20.20;99.30
12504;DHT22;6316;48.118;-1.690;2023-06-22T02:19:41;20.20;99.30
12504;DHT22;6316;48.118;-1.690;2023-06-22T02:22:07;20.20;99.30
12504;DHT22;6316;48.118;-1.690;2023-06-22T02:24:32;20.20;99.40
12504;DHT22;6316;48.118;-1.690;2023-06-22T02:26:59;20.20;99.40
12504;DHT22;6316;48.118;-1.690;2023-06-22T02:29:25;20.20;99.50
12504;DHT22;6316;48.118;-1.690;2023-06-22T02:31:53;20.10;99.50
12504;DHT22;6316;48.118;-1.690;2023-06-22T02:34:18;20.10;99.90
12504;DHT22;6316;48.118;-1.690;2023-06-22T02:36:48;20.10;99.60
12504;DHT22;6316;48.118;-1.690;2023-06-22T02:39:26;20.10;99.60
12504;DHT22;6316;48.118;-1.690;2023-06-22T02:41:52;20.10;99.70
12504;DHT22;6316;48.118;-1.690;2023-06-22T02:44:19;20.10;99.70
12504;DHT22;6316;48.118;-1.690;2023-06-22T02:46:45;20.10;99.80
12504;DHT22;6316;48.118;-1.690;2023-06-22T02:49:11;20.10;99.80
12504;DHT22;6316;48.118;-1.690;2023-06-22T02:51:42;20.10;99.80
12504;DHT22;6316;48.118;-1.690;2023-06-22T02:54:08;20.10;99.90
12504;DHT22;6316;48.118;-1.690;2023-06-22T02:56:33;20.10;99.90
12504;DHT22;6316;48.118;-1.690;2023-06-22T02:58:59;20.10;99.90
12504;DHT22;6316;48.118;-1.690;2023-06-22T03:01:29;20.00;99.90
12504;DHT22;6316;48.118;-1.690;2023-06-22T03:04:08;20.00;99.90
12504;DHT22;6316;48.118;-1.690;2023-06-22T03:06:34;20.00;99.90
12504;DHT22;6316;48.118;-1.690;2023-06-22T03:09:04;20.00;99.90
12504;DHT22;6316;48.118;-1.690;2023-06-22T03:11:31;20.00;99.90
12504;DHT22;6316;48.118;-1.690;2023-06-22T03:13:56;20.00;99.90
12504;DHT22;6316;48.118;-1.690;2023-06-22T03:16:22;20.00;99.90
12504;DHT22;6316;48.118;-1.690;2023-06-22T03:18:48;19.90;99.90
12504;DHT22;6316;48.118;-1.690;2023-06-22T03:21:14;19.90;99.90
12504;DHT22;6316;48.118;-1.690;2023-06-22T03:23:41;19.90;99.90
12504;DHT22;6316;48.118;-1.690;2023-06-22T03:26:08;19.90;99.90
12504;DHT22;6316;48.118;-1.690;2023-06-22T03:28:34;19.90;99.90
12504;DHT22;6316;48.118;-1.690;2023-06-22T03:30:59;19.90;99.90
12504;DHT22;6316;48.118;-1.690;2023-06-22T03:33:25;19.90;99.90
12504;DHT22;6316;48.118;-1.690;2023-06-22T03:35:51;19.90;99.90
12504;DHT22;6316;48.118;-1.690;2023-06-22T03:38:17;19.80;99.90
12504;DHT22;6316;48.118;-1.690;2023-06-22T03:40:42;19.80;99.90
12504;DHT22;6316;48.118;-1.690;2023-06-22T03:43:08;19.80;99.90
12504;DHT22;6316;48.118;-1.690;2023-06-22T03:45:34;19.70;99.90
12504;DHT22;6316;48.118;-1.690;2023-06-22T03:48:00;19.70;99.90
12504;DHT22;6316;48.118;-1.690;2023-06-22T03:50:26;19.70;99.90
12504;DHT22;6316;48.118;-1.690;2023-06-22T03:52:52;19.60;99.90
12504;DHT22;6316;48.118;-1.690;2023-06-22T03:55:19;19.60;99.90
12504;DHT22;6316;48.118;-1.690;2023-06-22T03:57:45;19.60;99.90
12504;DHT22;6316;48.118;-1.690;2023-06-22T04:00:12;19.60;99.90
12504;DHT22;6316;48.118;-1.690;2023-06-22T04:02:38;19.60;99.90
12504;DHT22;6316;48.118;-1.690;2023-06-22T04:05:04;19.50;99.90
12504;DHT22;6316;48.118;-1.690;2023-06-22T04:07:30;19.50;99.90
12504;DHT22;6316;48.118;-1.690;2023-06-22T04:09:56;19.50;99.90
12504;DHT22;6316;48.118;-1.690;2023-06-22T04:12:21;19.50;99.90
12504;DHT22;6316;48.118;-1.690;2023-06-22T04:14:47;19.50;99.90
12504;DHT22;6316;48.118;-1.690;2023-06-22T04:17:12;19.50;99.90
12504;DHT22;6316;48.118;-1.690;2023-06-22T04:19:39;19.50;99.90
12504;DHT22;6316;48.118;-1.690;2023-06-22T04:22:05;19.50;99.90
12504;DHT22;6316;48.118;-1.690;2023-06-22T04:24:33;19.50;99.90
12504;DHT22;6316;48.118;-1.690;2023-06-22T04:26:58;19.50;99.90
12504;DHT22;6316;48.118;-1.690;2023-06-22T04:29:28;19.50;99.90
12504;DHT22;6316;48.118;-1.690;2023-06-22T04:31:56;19.50;99.90
12504;DHT22;6316;48.118;-1.690;2023-06-22T04:34:24;19.50;99.90
12504;DHT22;6316;48.118;-1.690;2023-06-22T04:36:53;19.50;99.90
12504;DHT22;6316;48.118;-1.690;2023-06-22T04:39:19;19.50;99.90
12504;DHT22;6316;48.118;-1.690;2023-06-22T04:41:44;19.50;99.90
12504;DHT22;6316;48.118;-1.690;2023-06-22T04:44:20;19.50;99.90
12504;DHT22;6316;48.118;-1.690;2023-06-22T04:46:59;19.50;99.90
12504;DHT22;6316;48.118;-1.690;2023-06-22T04:49:34;19.50;99.90
12504;DHT22;6316;48.118;-1.690;2023-06-22T04:52:03;19.50;99.90
12504;DHT22;6316;48.118;-1.690;2023-06-22T04:54:29;19.50;99.90
12504;DHT22;6316;48.118;-1.690;2023-06-22T04:57:02;19.50;99.90
12504;DHT22;6316;48.118;-1.690;2023-06-22T04:59:29;19.50;99.90
12504;DHT22;6316;48.118;-1.690;2023-06-22T05:02:00;19.50;99.90
12504;DHT22;6316;48.118;-1.690;2023-06-22T05:04:26;19.50;99.90
12504;DHT22;6316;48.118;-1.690;2023-06-22T05:06:54;19.50;99.90
12504;DHT22;6316;48.118;-1.690;2023-06-22T05:09:20;19.50;99.90
12504;DHT22;6316;48.118;-1.690;2023-06-22T05:11:46;19.50;99.90
12504;DHT22;6316;48.118;-1.690;2023-06-22T05:14:12;19.50;99.90
12504;DHT22;6316;48.118;-1.690;2023-06-22T05:16:38;19.50;99.90
12504;DHT22;6316;48.118;-1.690;2023-06-22T05:19:04;19.50;99.90
12504;DHT22;6316;48.118;-1.690;2023-06-22T05:21:31;19.50;99.90
12504;DHT22;6316;48.118;-1.690;2023-06-22T05:23:57;19.60;99.90
12504;DHT22;6316;48.118;-1.690;2023-06-22T05:26:26;19.60;99.90
12504;DHT22;6316;48.118;-1.690;2023-06-22T05:28:55;19.60;99.90
12504;DHT22;6316;48.118;-1.690;2023-06-22T05:31:21;19.70;99.90
12504;DHT22;6316;48.118;-1.690;2023-06-22T05:33:49;19.70;99.90
12504;DHT22;6316;48.118;-1.690;2023-06-22T05:36:15;19.80;99.90
12504;DHT22;6316;48.118;-1.690;2023-06-22T05:38:41;19.80;99.90
12504;DHT22;6316;48.118;-1.690;2023-06-22T05:41:07;19.80;99.90
12504;DHT22;6316;48.118;-1.690;2023-06-22T05:43:33;19.90;99.90
12504;DHT22;6316;48.118;-1.690;2023-06-22T05:46:00;20.00;99.90
12504;DHT22;6316;48.118;-1.690;2023-06-22T05:48:26;20.00;99.90
12504;DHT22;6316;48.118;-1.690;2023-06-22T05:50:53;20.10;99.90
12504;DHT22;6316;48.118;-1.690;2023-06-22T05:53:19;20.10;99.90
12504;DHT22;6316;48.118;-1.690;2023-06-22T05:55:45;20.20;99.90
12504;DHT22;6316;48.118;-1.690;2023-06-22T05:58:10;20.30;99.90
12504;DHT22;6316;48.118;-1.690;2023-06-22T06:00:36;20.30;99.90
12504;DHT22;6316;48.118;-1.690;2023-06-22T06:03:02;20.40;99.90
12504;DHT22;6316;48.118;-1.690;2023-06-22T06:05:29;20.50;99.90
12504;DHT22;6316;48.118;-1.690;2023-06-22T06:07:55;20.50;99.90
12504;DHT22;6316;48.118;-1.690;2023-06-22T06:10:20;20.60;99.90
12504;DHT22;6316;48.118;-1.690;2023-06-22T06:12:46;20.60;99.90
12504;DHT22;6316;48.118;-1.690;2023-06-22T06:15:12;20.60;99.90
12504;DHT22;6316;48.118;-1.690;2023-06-22T06:17:51;20.70;99.90
12504;DHT22;6316;48.118;-1.690;2023-06-22T06:20:27;20.80;99.90
12504;DHT22;6316;48.118;-1.690;2023-06-22T06:22:55;20.80;99.90
12504;DHT22;6316;48.118;-1.690;2023-06-22T06:25:22;20.90;99.90
12504;DHT22;6316;48.118;-1.690;2023-06-22T06:27:49;21.00;99.90
12504;DHT22;6316;48.118;-1.690;2023-06-22T06:30:16;21.10;99.90
12504;DHT22;6316;48.118;-1.690;2023-06-22T06:32:42;21.10;99.90
12504;DHT22;6316;48.118;-1.690;2023-06-22T06:35:09;21.20;99.90
12504;DHT22;6316;48.118;-1.690;2023-06-22T06:37:36;21.30;99.90
12504;DHT22;6316;48.118;-1.690;2023-06-22T06:40:04;21.40;99.90
12504;DHT22;6316;48.118;-1.690;2023-06-22T06:42:48;21.70;99.90
12504;DHT22;6316;48.118;-1.690;2023-06-22T06:45:22;22.20;99.90
12504;DHT22;6316;48.118;-1.690;2023-06-22T06:47:49;22.80;99.90
12504;DHT22;6316;48.118;-1.690;2023-06-22T06:50:15;23.40;99.90
12504;DHT22;6316;48.118;-1.690;2023-06-22T06:52:41;23.90;99.90
12504;DHT22;6316;48.118;-1.690;2023-06-22T06:55:08;24.60;99.90
12504;DHT22;6316;48.118;-1.690;2023-06-22T06:57:40;25.10;99.90
12504;DHT22;6316;48.118;-1.690;2023-06-22T07:00:08;25.80;99.90
12504;DHT22;6316;48.118;-1.690;2023-06-22T07:02:38;26.40;99.90
12504;DHT22;6316;48.118;-1.690;2023-06-22T07:05:05;27.10;99.90
12504;DHT22;6316;48.118;-1.690;2023-06-22T07:07:31;27.80;99.90
12504;DHT22;6316;48.118;-1.690;2023-06-22T07:09:57;28.30;99.60
12504;DHT22;6316;48.118;-1.690;2023-06-22T07:12:23;28.80;99.30
12504;DHT22;6316;48.118;-1.690;2023-06-22T07:14:48;29.20;99.00
12504;DHT22;6316;48.118;-1.690;2023-06-22T07:17:14;29.40;98.80
12504;DHT22;6316;48.118;-1.690;2023-06-22T07:19:39;29.40;98.70
12504;DHT22;6316;48.118;-1.690;2023-06-22T07:22:07;29.50;98.80
12504;DHT22;6316;48.118;-1.690;2023-06-22T07:24:33;29.80;98.80
12504;DHT22;6316;48.118;-1.690;2023-06-22T07:26:58;30.10;98.50
12504;DHT22;6316;48.118;-1.690;2023-06-22T07:29:25;30.40;98.40
12504;DHT22;6316;48.118;-1.690;2023-06-22T07:31:52;30.80;98.30
12504;DHT22;6316;48.118;-1.690;2023-06-22T07:34:18;31.10;98.10
12504;DHT22;6316;48.118;-1.690;2023-06-22T07:36:45;31.30;98.00
12504;DHT22;6316;48.118;-1.690;2023-06-22T07:39:13;31.40;97.90
12504;DHT22;6316;48.118;-1.690;2023-06-22T07:41:40;31.50;97.80
12504;DHT22;6316;48.118;-1.690;2023-06-22T07:44:06;31.30;97.80
12504;DHT22;6316;48.118;-1.690;2023-06-22T07:46:32;30.80;97.90
12504;DHT22;6316;48.118;-1.690;2023-06-22T07:48:58;30.50;98.10
12504;DHT22;6316;48.118;-1.690;2023-06-22T07:51:25;30.30;98.20
12504;DHT22;6316;48.118;-1.690;2023-06-22T07:53:51;30.20;98.30
12504;DHT22;6316;48.118;-1.690;2023-06-22T07:56:16;30.30;98.20
12504;DHT22;6316;48.118;-1.690;2023-06-22T07:58:46;30.50;98.20
12504;DHT22;6316;48.118;-1.690;2023-06-22T08:01:12;30.50;97.90
12504;DHT22;6316;48.118;-1.690;2023-06-22T08:03:38;30.40;98.00
12504;DHT22;6316;48.118;-1.690;2023-06-22T08:06:05;30.80;97.90
12504;DHT22;6316;48.118;-1.690;2023-06-22T08:08:31;30.90;97.70
12504;DHT22;6316;48.118;-1.690;2023-06-22T08:10:57;31.20;97.60
12504;DHT22;6316;48.118;-1.690;2023-06-22T08:13:22;31.40;97.40
12504;DHT22;6316;48.118;-1.690;2023-06-22T08:15:48;31.40;97.40
12504;DHT22;6316;48.118;-1.690;2023-06-22T08:18:14;31.90;97.40
12504;DHT22;6316;48.118;-1.690;2023-06-22T08:20:41;32.40;97.00
12504;DHT22;6316;48.118;-1.690;2023-06-22T08:23:07;32.70;96.70
12504;DHT22;6316;48.118;-1.690;2023-06-22T08:25:33;32.90;96.50
12504;DHT22;6316;48.118;-1.690;2023-06-22T08:28:00;32.90;96.30
12504;DHT22;6316;48.118;-1.690;2023-06-22T08:30:26;32.90;96.30
12504;DHT22;6316;48.118;-1.690;2023-06-22T08:32:52;32.90;96.30
12504;DHT22;6316;48.118;-1.690;2023-06-22T08:35:19;33.30;96.20
12504;DHT22;6316;48.118;-1.690;2023-06-22T08:37:46;33.70;95.90
12504;DHT22;6316;48.118;-1.690;2023-06-22T08:40:18;33.90;95.70
12504;DHT22;6316;48.118;-1.690;2023-06-22T08:42:45;34.00;95.60
12504;DHT22;6316;48.118;-1.690;2023-06-22T08:45:12;34.10;95.60
12504;DHT22;6316;48.118;-1.690;2023-06-22T08:47:38;34.20;95.40
12504;DHT22;6316;48.118;-1.690;2023-06-22T08:50:05;34.00;95.20
12504;DHT22;6316;48.118;-1.690;2023-06-22T08:52:31;33.60;95.30
12504;DHT22;6316;48.118;-1.690;2023-06-22T08:54:57;33.10;95.40
12504;DHT22;6316;48.118;-1.690;2023-06-22T08:57:26;32.70;95.50
12504;DHT22;6316;48.118;-1.690;2023-06-22T08:59:52;32.40;95.70
12504;DHT22;6316;48.118;-1.690;2023-06-22T09:02:19;32.30;95.70
12504;DHT22;6316;48.118;-1.690;2023-06-22T09:04:46;32.40;95.70
12504;DHT22;6316;48.118;-1.690;2023-06-22T09:07:11;32.60;95.50
12504;DHT22;6316;48.118;-1.690;2023-06-22T09:09:37;32.30;95.40
12504;DHT22;6316;48.118;-1.690;2023-06-22T09:12:03;31.90;95.40
12504;DHT22;6316;48.118;-1.690;2023-06-22T09:14:29;31.70;95.60
12504;DHT22;6316;48.118;-1.690;2023-06-22T09:16:55;31.80;95.50
12504;DHT22;6316;48.118;-1.690;2023-06-22T09:19:20;32.10;95.40
12504;DHT22;6316;48.118;-1.690;2023-06-22T09:21:46;32.40;95.20
12504;DHT22;6316;48.118;-1.690;2023-06-22T09:24:11;32.50;95.00
12504;DHT22;6316;48.118;-1.690;2023-06-22T09:26:37;32.50;94.80
12504;DHT22;6316;48.118;-1.690;2023-06-22T09:29:05;32.30;94.70
12504;DHT22;6316;48.118;-1.690;2023-06-22T09:31:31;32.10;94.60
12504;DHT22;6316;48.118;-1.690;2023-06-22T09:33:57;32.00;94.60
12504;DHT22;6316;48.118;-1.690;2023-06-22T09:36:22;31.80;94.60
12504;DHT22;6316;48.118;-1.690;2023-06-22T09:38:49;31.60;94.60
12504;DHT22;6316;48.118;-1.690;2023-06-22T09:41:21;31.50;94.40
12504;DHT22;6316;48.118;-1.690;2023-06-22T09:43:46;31.10;94.40
12504;DHT22;6316;48.118;-1.690;2023-06-22T09:46:14;30.60;94.50
12504;DHT22;6316;48.118;-1.690;2023-06-22T09:48:40;30.30;94.70
12504;DHT22;6316;48.118;-1.690;2023-06-22T09:51:06;30.10;94.70
12504;DHT22;6316;48.118;-1.690;2023-06-22T09:53:31;29.80;94.70
12504;DHT22;6316;48.118;-1.690;2023-06-22T09:55:57;29.60;94.70
12504;DHT22;6316;48.118;-1.690;2023-06-22T09:58:23;29.30;94.70
12504;DHT22;6316;48.118;-1.690;2023-06-22T10:00:49;29.00;94.90
12504;DHT22;6316;48.118;-1.690;2023-06-22T10:03:14;28.70;95.00
12504;DHT22;6316;48.118;-1.690;2023-06-22T10:05:40;28.60;95.10
12504;DHT22;6316;48.118;-1.690;2023-06-22T10:08:05;28.40;95.20
12504;DHT22;6316;48.118;-1.690;2023-06-22T10:10:33;28.30;95.20
12504;DHT22;6316;48.118;-1.690;2023-06-22T10:13:07;28.20;95.20
12504;DHT22;6316;48.118;-1.690;2023-06-22T10:15:34;28.00;95.20
12504;DHT22;6316;48.118;-1.690;2023-06-22T10:18:00;27.90;95.30
12504;DHT22;6316;48.118;-1.690;2023-06-22T10:20:25;27.70;95.30
12504;DHT22;6316;48.118;-1.690;2023-06-22T10:22:51;27.60;95.30
12504;DHT22;6316;48.118;-1.690;2023-06-22T10:25:17;27.60;95.30
12504;DHT22;6316;48.118;-1.690;2023-06-22T10:27:43;27.50;95.30
12504;DHT22;6316;48.118;-1.690;2023-06-22T10:30:10;27.40;95.30
12504;DHT22;6316;48.118;-1.690;2023-06-22T10:32:38;27.30;95.40
12504;DHT22;6316;48.118;-1.690;2023-06-22T10:35:04;27.20;95.30
12504;DHT22;6316;48.118;-1.690;2023-06-22T10:37:30;27.20;95.40
12504;DHT22;6316;48.118;-1.690;2023-06-22T10:39:56;27.20;95.40
12504;DHT22;6316;48.118;-1.690;2023-06-22T10:42:22;27.10;95.30
12504;DHT22;6316;48.118;-1.690;2023-06-22T10:44:47;27.00;95.30
12504;DHT22;6316;48.118;-1.690;2023-06-22T10:47:13;27.00;95.30
12504;DHT22;6316;48.118;-1.690;2023-06-22T10:49:39;26.90;95.40
12504;DHT22;6316;48.118;-1.690;2023-06-22T10:52:06;26.90;95.40
12504;DHT22;6316;48.118;-1.690;2023-06-22T10:54:33;26.90;95.40
12504;DHT22;6316;48.118;-1.690;2023-06-22T10:56:59;26.90;95.40
12504;DHT22;6316;48.118;-1.690;2023-06-22T10:59:25;26.90;95.40
12504;DHT22;6316;48.118;-1.690;2023-06-22T11:01:52;26.90;95.40
12504;DHT22;6316;48.118;-1.690;2023-06-22T11:04:18;27.00;95.40
12504;DHT22;6316;48.118;-1.690;2023-06-22T11:06:43;27.00;95.40
12504;DHT22;6316;48.118;-1.690;2023-06-22T11:09:09;27.00;95.40
12504;DHT22;6316;48.118;-1.690;2023-06-22T11:11:35;26.90;95.40
12504;DHT22;6316;48.118;-1.690;2023-06-22T11:14:00;26.90;95.40
12504;DHT22;6316;48.118;-1.690;2023-06-22T11:16:26;26.90;95.40
12504;DHT22;6316;48.118;-1.690;2023-06-22T11:18:52;26.90;95.40
12504;DHT22;6316;48.118;-1.690;2023-06-22T11:21:18;26.80;95.40
12504;DHT22;6316;48.118;-1.690;2023-06-22T11:23:43;26.80;95.40
12504;DHT22;6316;48.118;-1.690;2023-06-22T11:26:09;26.80;95.40
12504;DHT22;6316;48.118;-1.690;2023-06-22T11:28:35;26.80;95.40
12504;DHT22;6316;48.118;-1.690;2023-06-22T11:31:00;26.80;95.40
12504;DHT22;6316;48.118;-1.690;2023-06-22T11:33:26;26.80;95.30
12504;DHT22;6316;48.118;-1.690;2023-06-22T11:35:51;26.80;95.30
12504;DHT22;6316;48.118;-1.690;2023-06-22T11:38:17;26.80;95.30
12504;DHT22;6316;48.118;-1.690;2023-06-22T11:40:43;26.90;95.40
12504;DHT22;6316;48.118;-1.690;2023-06-22T11:43:08;26.90;95.30
12504;DHT22;6316;48.118;-1.690;2023-06-22T11:45:34;26.90;95.30
12504;DHT22;6316;48.118;-1.690;2023-06-22T11:47:59;27.00;95.30
12504;DHT22;6316;48.118;-1.690;2023-06-22T11:50:25;27.00;95.30
12504;DHT22;6316;48.118;-1.690;2023-06-22T11:52:51;27.10;95.30
12504;DHT22;6316;48.118;-1.690;2023-06-22T11:55:18;27.10;95.20
12504;DHT22;6316;48.118;-1.690;2023-06-22T11:57:57;27.00;95.20
12504;DHT22;6316;48.118;-1.690;2023-06-22T12:00:25;27.00;95.20
12504;DHT22;6316;48.118;-1.690;2023-06-22T12:02:51;27.00;95.20
12504;DHT22;6316;48.118;-1.690;2023-06-22T12:05:20;27.00;95.20
12504;DHT22;6316;48.118;-1.690;2023-06-22T12:07:52;27.00;95.20
12504;DHT22;6316;48.118;-1.690;2023-06-22T12:10:18;27.10;95.20
12504;DHT22;6316;48.118;-1.690;2023-06-22T12:12:44;27.10;95.10
12504;DHT22;6316;48.118;-1.690;2023-06-22T12:15:10;27.00;95.10
12504;DHT22;6316;48.118;-1.690;2023-06-22T12:17:36;27.00;95.10
12504;DHT22;6316;48.118;-1.690;2023-06-22T12:20:02;27.00;95.10
12504;DHT22;6316;48.118;-1.690;2023-06-22T12:22:31;27.00;95.20
12504;DHT22;6316;48.118;-1.690;2023-06-22T12:24:57;27.00;95.20
12504;DHT22;6316;48.118;-1.690;2023-06-22T12:27:23;27.00;95.20
12504;DHT22;6316;48.118;-1.690;2023-06-22T12:29:48;27.00;95.20
12504;DHT22;6316;48.118;-1.690;2023-06-22T12:32:14;27.00;95.20
12504;DHT22;6316;48.118;-1.690;2023-06-22T12:34:42;27.00;95.30
12504;DHT22;6316;48.118;-1.690;2023-06-22T12:37:08;27.10;95.30
12504;DHT22;6316;48.118;-1.690;2023-06-22T12:39:33;27.10;95.30
12504;DHT22;6316;48.118;-1.690;2023-06-22T12:41:59;27.20;95.30
12504;DHT22;6316;48.118;-1.690;2023-06-22T12:44:25;27.30;95.30
12504;DHT22;6316;48.118;-1.690;2023-06-22T12:46:50;27.40;95.30
12504;DHT22;6316;48.118;-1.690;2023-06-22T12:49:16;27.40;95.20
12504;DHT22;6316;48.118;-1.690;2023-06-22T12:51:42;27.50;95.20
12504;DHT22;6316;48.118;-1.690;2023-06-22T12:54:08;27.60;95.20
12504;DHT22;6316;48.118;-1.690;2023-06-22T12:56:35;27.70;95.20
12504;DHT22;6316;48.118;-1.690;2023-06-22T12:59:00;27.70;95.10
12504;DHT22;6316;48.118;-1.690;2023-06-22T13:01:29;27.70;95.10
12504;DHT22;6316;48.118;-1.690;2023-06-22T13:03:58;27.80;95.10
12504;DHT22;6316;48.118;-1.690;2023-06-22T13:06:24;27.80;95.10
12504;DHT22;6316;48.118;-1.690;2023-06-22T13:08:50;27.70;95.10
12504;DHT22;6316;48.118;-1.690;2023-06-22T13:11:16;27.80;95.10
12504;DHT22;6316;48.118;-1.690;2023-06-22T13:13:42;27.70;95.10
12504;DHT22;6316;48.118;-1.690;2023-06-22T13:16:07;27.70;95.10
12504;DHT22;6316;48.118;-1.690;2023-06-22T13:18:33;27.60;95.00
12504;DHT22;6316;48.118;-1.690;2023-06-22T13:21:01;27.50;95.10
12504;DHT22;6316;48.118;-1.690;2023-06-22T13:23:27;27.50;95.10
12504;DHT22;6316;48.118;-1.690;2023-06-22T13:25:53;27.40;95.10
12504;DHT22;6316;48.118;-1.690;2023-06-22T13:28:18;27.40;95.10
12504;DHT22;6316;48.118;-1.690;2023-06-22T13:30:44;27.50;95.10
12504;DHT22;6316;48.118;-1.690;2023-06-22T13:33:12;27.40;95.00
12504;DHT22;6316;48.118;-1.690;2023-06-22T13:35:38;27.50;95.10
12504;DHT22;6316;48.118;-1.690;2023-06-22T13:38:04;27.50;95.00
12504;DHT22;6316;48.118;-1.690;2023-06-22T13:40:30;27.60;95.00
12504;DHT22;6316;48.118;-1.690;2023-06-22T13:42:56;27.70;94.90
12504;DHT22;6316;48.118;-1.690;2023-06-22T13:45:22;27.60;94.80
12504;DHT22;6316;48.118;-1.690;2023-06-22T13:47:48;27.50;94.80
12504;DHT22;6316;48.118;-1.690;2023-06-22T13:50:13;27.50;94.80
12504;DHT22;6316;48.118;-1.690;2023-06-22T13:52:39;27.40;94.80
12504;DHT22;6316;48.118;-1.690;2023-06-22T13:55:06;27.40;94.90
12504;DHT22;6316;48.118;-1.690;2023-06-22T13:57:35;27.30;94.80
12504;DHT22;6316;48.118;-1.690;2023-06-22T14:00:02;27.30;94.80
12504;DHT22;6316;48.118;-1.690;2023-06-22T14:02:29;27.20;94.70
12504;DHT22;6316;48.118;-1.690;2023-06-22T14:04:54;27.20;94.70
12504;DHT22;6316;48.118;-1.690;2023-06-22T14:07:20;27.20;94.70
12504;DHT22;6316;48.118;-1.690;2023-06-22T14:09:46;27.20;94.70
12504;DHT22;6316;48.118;-1.690;2023-06-22T14:12:12;27.10;94.70
12504;DHT22;6316;48.118;-1.690;2023-06-22T14:14:38;27.10;94.70
12504;DHT22;6316;48.118;-1.690;2023-06-22T14:17:04;27.10;94.70
12504;DHT22;6316;48.118;-1.690;2023-06-22T14:19:30;27.00;94.60
12504;DHT22;6316;48.118;-1.690;2023-06-22T14:21:56;27.00;94.60
12504;DHT22;6316;48.118;-1.690;2023-06-22T14:24:22;27.00;94.60
12504;DHT22;6316;48.118;-1.690;2023-06-22T14:26:48;27.00;94.60
12504;DHT22;6316;48.118;-1.690;2023-06-22T14:29:14;27.00;94.60
12504;DHT22;6316;48.118;-1.690;2023-06-22T14:31:40;26.90;94.50
12504;DHT22;6316;48.118;-1.690;2023-06-22T14:34:05;26.90;94.50
12504;DHT22;6316;48.118;-1.690;2023-06-22T14:36:31;26.80;94.50
12504;DHT22;6316;48.118;-1.690;2023-06-22T14:38:57;26.80;94.50
12504;DHT22;6316;48.118;-1.690;2023-06-22T14:41:22;26.90;94.50
12504;DHT22;6316;48.118;-1.690;2023-06-22T14:43:49;26.90;94.50
12504;DHT22;6316;48.118;-1.690;2023-06-22T14:46:17;26.90;94.50
12504;DHT22;6316;48.118;-1.690;2023-06-22T14:48:43;26.90;94.50
12504;DHT22;6316;48.118;-1.690;2023-06-22T14:51:10;27.00;94.50
12504;DHT22;6316;48.118;-1.690;2023-06-22T14:53:36;27.00;94.40
12504;DHT22;6316;48.118;-1.690;2023-06-22T14:56:02;27.00;94.40
12504;DHT22;6316;48.118;-1.690;2023-06-22T14:58:32;27.00;94.40
12504;DHT22;6316;48.118;-1.690;2023-06-22T15:01:04;27.00;94.30
12504;DHT22;6316;48.118;-1.690;2023-06-22T15:03:34;27.00;94.30
12504;DHT22;6316;48.118;-1.690;2023-06-22T15:06:01;27.00;94.30
12504;DHT22;6316;48.118;-1.690;2023-06-22T15:08:27;27.00;94.30
12504;DHT22;6316;48.118;-1.690;2023-06-22T15:10:53;27.00;94.30
12504;DHT22;6316;48.118;-1.690;2023-06-22T15:13:19;27.00;94.20
12504;DHT22;6316;48.118;-1.690;2023-06-22T15:15:48;27.10;94.20
12504;DHT22;6316;48.118;-1.690;2023-06-22T15:18:17;27.10;94.20
12504;DHT22;6316;48.118;-1.690;2023-06-22T15:20:43;27.20;94.20
12504;DHT22;6316;48.118;-1.690;2023-06-22T15:23:11;27.20;94.10
12504;DHT22;6316;48.118;-1.690;2023-06-22T15:25:38;27.20;94.10
12504;DHT22;6316;48.118;-1.690;2023-06-22T15:28:04;27.20;94.10
12504;DHT22;6316;48.118;-1.690;2023-06-22T15:30:30;27.20;94.00
12504;DHT22;6316;48.118;-1.690;2023-06-22T15:33:00;27.10;94.00
12504;DHT22;6316;48.118;-1.690;2023-06-22T15:35:28;27.10;94.10
12504;DHT22;6316;48.118;-1.690;2023-06-22T15:37:56;27.10;94.10
12504;DHT22;6316;48.118;-1.690;2023-06-22T15:40:21;27.10;94.00